CYPD

Port Hawkesbury Airport

Port Hawkesbury, Nova Scotia, Canada
METAR CYPD 172100Z AUTO 29016G24KT 9SM -SN OVC014 M08/M11 A2989 RMK SLP133
Observed Flight Rules
Dec-17 @ 21:00 UTC (27 minutes ago) Marginal Visual Flight Rules
Wind Visibility Clouds Conditions
290° at 16 knots
 Gusting to 24 knots
9 miles
  • Overcast at 1,400' AGL
  • Light Snow
Temperatures Readings
Current -8°C / 18°F
Dewpoint -11°C / 12°F
Humidity 79%
Altimeter 29.89" Hg
Pressure 1013.3 hPa
Elevation 114
METAR CYPD 172100Z AUTO 29016G24KT 9SM -SN OVC014 M08/M11 A2989 RMK SLP133
Observed Flight Rules
Dec-17 @ 21:00 UTC
(27 minutes ago)
MVFR
Wind Visibility
290° at 16 knots
 Gusting to 24 knots
9 miles
Clouds
  • Overcast at 1,400' AGL
Conditions
  • Light Snow
Temperature Dewpoint
-8°C / 18°F -11°C / 12°F
Humidity Altimeter Pressure
79% 29.89" Hg 1013.3 hPa